Time;durP1;ratioP1;P1;durP2;ratioP2;P2;SDS_P1;SDS_P2;PMS_P1;PMS_P2;Temp;Humidity;BMP_temperature;BMP_pressure;BME280_temperature;BME280_humidity;BME280_pressure;Samples;Min_cycle;Max_cycle;Signal;HPM_P1;HPM_P2
2022/12/23 00:00:19;;;;;;;16.35;10.38;;;2.70;99.90;;;;;;5117150;28;20031;-81
2022/12/23 00:02:45;;;;;;;13.38;9.00;;;2.60;99.90;;;;;;5115878;28;20153;-83
2022/12/23 00:05:11;;;;;;;14.88;8.07;;;2.60;99.90;;;;;;5115836;28;20483;-82
2022/12/23 00:07:37;;;;;;;12.88;8.77;;;2.60;99.90;;;;;;5128387;27;20400;-81
2022/12/23 00:10:04;;;;;;;15.15;9.80;;;2.50;99.90;;;;;;5109062;28;20016;-81
2022/12/23 00:15:14;;;;;;;13.15;9.65;;;2.50;99.90;;;;;;5120310;28;20149;-84
2022/12/23 00:17:43;;;;;;;13.53;10.37;;;2.50;99.90;;;;;;5120583;27;20019;-82
2022/12/23 00:20:12;;;;;;;13.75;9.50;;;2.50;99.90;;;;;;5124771;27;20027;-81
2022/12/23 00:25:41;;;;;;;15.35;9.48;;;2.60;99.90;;;;;;5116448;28;20070;-84
2022/12/23 00:28:11;;;;;;;11.80;8.60;;;2.60;99.90;;;;;;5121008;27;20035;-85
2022/12/23 00:30:47;;;;;;;16.35;10.45;;;2.60;99.90;;;;;;5134109;28;20024;-83
2022/12/23 00:33:14;;;;;;;15.07;9.40;;;2.60;99.90;;;;;;5106408;28;20023;-84
2022/12/23 00:35:41;;;;;;;15.45;9.75;;;2.60;99.90;;;;;;5115930;28;20023;-85
2022/12/23 00:38:07;;;;;;;14.73;10.40;;;2.60;99.90;;;;;;5121852;27;20682;-84
2022/12/23 00:43:17;;;;;;;10.90;7.47;;;2.60;99.90;;;;;;5122380;27;20496;-86
2022/12/23 00:45:42;;;;;;;14.52;9.70;;;2.50;99.90;;;;;;5140230;27;20027;-84
2022/12/23 00:50:53;;;;;;;15.98;10.10;;;2.30;99.90;;;;;;5101200;28;20119;-85
2022/12/23 00:53:19;;;;;;;11.60;8.18;;;2.20;99.90;;;;;;5102941;27;20039;-85
2022/12/23 00:55:52;;;;;;;12.90;8.87;;;2.20;99.90;;;;;;5130870;27;20023;-85
2022/12/23 00:58:19;;;;;;;16.42;9.65;;;2.10;99.90;;;;;;5114202;27;20432;-84
2022/12/23 01:06:15;;;;;;;16.90;10.30;;;2.00;99.90;;;;;;5122937;27;20039;-84
2022/12/23 01:08:41;;;;;;;17.77;12.15;;;2.00;99.90;;;;;;5114855;28;20085;-85
2022/12/23 01:11:10;;;;;;;18.88;11.05;;;2.00;99.90;;;;;;5115979;28;20023;-83
2022/12/23 01:13:36;;;;;;;15.65;10.35;;;2.00;99.90;;;;;;5135870;27;20067;-85
2022/12/23 01:16:08;;;;;;;12.68;9.50;;;2.00;99.90;;;;;;5141331;27;20063;-84
2022/12/23 01:18:37;;;;;;;16.75;10.40;;;2.00;99.90;;;;;;5120435;27;20444;-82
2022/12/23 01:21:05;;;;;;;17.35;10.38;;;2.00;99.90;;;;;;5134399;27;20053;-82
2022/12/23 01:23:31;;;;;;;;;;;2.00;99.90;;;;;;5134397;27;20121;-82
2022/12/23 01:26:02;;;;;;;15.60;10.80;;;1.90;99.90;;;;;;5102741;27;19960;-82
2022/12/23 01:28:29;;;;;;;19.33;12.18;;;2.00;99.90;;;;;;5129937;27;20031;-81
2022/12/23 01:30:55;;;;;;;14.17;10.83;;;2.00;99.90;;;;;;5119321;27;20068;-82
2022/12/23 01:33:21;;;;;;;18.35;11.52;;;2.10;99.90;;;;;;5123832;27;20290;-83
2022/12/23 01:35:47;;;;;;;20.15;12.10;;;2.10;99.90;;;;;;5131780;27;20066;-82
2022/12/23 01:38:13;;;;;;;18.50;12.93;;;2.00;99.90;;;;;;5136796;27;20030;-83
2022/12/23 01:40:41;;;;;;;19.75;12.77;;;2.10;99.90;;;;;;5124284;27;20102;-84
2022/12/23 01:43:16;;;;;;;18.65;13.15;;;2.10;99.90;;;;;;5099427;27;20054;-84
2022/12/23 01:45:42;;;;;;;20.08;13.65;;;2.20;99.90;;;;;;5135339;27;20245;-82
2022/12/23 01:48:10;;;;;;;15.68;11.55;;;2.30;99.90;;;;;;5139744;27;20055;-84
2022/12/23 01:50:42;;;;;;;16.80;11.30;;;2.40;99.90;;;;;;5122628;27;20421;-84
2022/12/23 01:53:17;;;;;;;18.08;12.70;;;2.40;99.90;;;;;;5136244;27;20387;-84
2022/12/23 01:55:50;;;;;;;17.02;10.32;;;2.30;99.90;;;;;;5137165;27;20035;-83
2022/12/23 01:58:36;;;;;;;18.92;12.88;;;2.30;99.90;;;;;;5135054;27;20049;-83
2022/12/23 02:03:52;;;;;;;18.30;11.82;;;2.40;99.90;;;;;;5114232;28;20108;-84
2022/12/23 02:09:23;;;;;;;16.63;12.02;;;2.40;99.90;;;;;;5121952;27;20046;-83
2022/12/23 02:12:17;;;;;;;18.13;12.00;;;2.40;99.90;;;;;;5112963;27;20093;-82
2022/12/23 02:18:35;;;;;;;18.80;12.80;;;2.20;99.90;;;;;;5131077;27;20056;-82
2022/12/23 02:21:19;;;;;;;17.33;10.80;;;2.10;99.90;;;;;;5124090;27;20020;-82
2022/12/23 02:24:12;;;;;;;17.70;12.13;;;2.10;99.90;;;;;;5119051;27;20589;-82
2022/12/23 02:26:44;;;;;;;16.02;10.95;;;2.00;99.90;;;;;;5134496;27;20387;-83
2022/12/23 02:29:21;;;;;;;22.83;13.63;;;2.00;99.90;;;;;;5120919;27;20367;-82
2022/12/23 02:32:02;;;;;;;15.70;9.50;;;2.00;99.90;;;;;;5133580;27;20051;-83
2022/12/23 02:34:47;;;;;;;16.98;12.55;;;1.90;99.90;;;;;;5133827;27;20034;-85
2022/12/23 02:37:18;;;;;;;22.33;13.63;;;1.80;99.90;;;;;;5132941;27;20544;-83
2022/12/23 02:39:50;;;;;;;23.58;14.48;;;1.80;99.90;;;;;;5134071;27;20031;-83
2022/12/23 02:42:20;;;;;;;23.05;14.88;;;1.80;99.90;;;;;;5126488;28;20012;-84
2022/12/23 02:45:20;;;;;;;25.95;18.40;;;1.90;99.90;;;;;;5101348;27;20098;-82
2022/12/23 02:48:28;;;;;;;24.58;15.23;;;2.00;99.90;;;;;;5114651;27;20121;-83
2022/12/23 02:50:56;;;;;;;25.88;15.77;;;2.20;99.90;;;;;;5082776;27;20031;-82
2022/12/23 02:53:38;;;;;;;28.33;16.55;;;2.20;99.90;;;;;;5120598;27;20053;-83
2022/12/23 02:56:07;;;;;;;24.75;16.10;;;2.20;99.90;;;;;;5119543;27;20027;-83
2022/12/23 02:58:42;;;;;;;25.00;17.77;;;2.30;99.90;;;;;;5136736;27;20046;-81
2022/12/23 03:01:10;;;;;;;29.52;17.98;;;2.30;99.90;;;;;;5149844;27;20029;-81
2022/12/23 03:03:36;;;;;;;26.10;16.05;;;2.40;99.90;;;;;;5142573;28;20022;-82
2022/12/23 03:06:14;;;;;;;27.00;18.40;;;2.50;99.90;;;;;;5135870;28;20101;-82
2022/12/23 03:08:43;;;;;;;22.90;16.20;;;2.50;99.90;;;;;;5135182;28;20098;-83
2022/12/23 03:11:14;;;;;;;28.05;18.38;;;2.50;99.90;;;;;;5115585;28;20015;-83
2022/12/23 03:14:17;;;;;;;25.63;16.27;;;2.50;99.90;;;;;;5106566;28;20111;-82
2022/12/23 03:17:22;;;;;;;29.55;18.50;;;2.50;99.90;;;;;;5133353;28;20018;-83
2022/12/23 03:19:54;;;;;;;24.35;15.90;;;2.50;99.90;;;;;;5113340;28;20360;-84
2022/12/23 03:22:28;;;;;;;25.65;16.90;;;2.50;99.90;;;;;;5121845;28;20425;-82
2022/12/23 03:25:25;;;;;;;27.70;18.80;;;2.50;99.90;;;;;;5117228;28;20043;-83
2022/12/23 03:28:00;;;;;;;27.02;17.67;;;2.50;99.90;;;;;;5093913;28;20044;-83
2022/12/23 03:30:26;;;;;;;26.42;16.98;;;2.50;99.90;;;;;;5093960;28;20031;-82
2022/12/23 03:33:14;;;;;;;28.15;16.17;;;2.40;99.90;;;;;;5112460;28;20416;-83
2022/12/23 03:35:46;;;;;;;26.45;16.73;;;2.40;99.90;;;;;;5112275;28;20023;-83
2022/12/23 03:38:15;;;;;;;27.30;17.77;;;2.40;99.90;;;;;;5112512;28;20019;-83
2022/12/23 03:40:46;;;;;;;27.65;15.77;;;2.40;99.90;;;;;;5110322;28;20027;-83
2022/12/23 03:43:40;;;;;;;25.15;17.48;;;2.40;99.90;;;;;;5099936;28;20059;-84
2022/12/23 03:46:14;;;;;;;23.10;15.45;;;2.40;99.90;;;;;;5094708;28;20094;-85
2022/12/23 03:49:00;;;;;;;;;;;;;;;;;;;;;
2022/12/23 03:51:35;;;;;;;27.67;16.73;;;2.40;99.90;;;;;;5117043;28;20024;-84
2022/12/23 03:54:09;;;;;;;20.98;13.98;;;2.40;99.90;;;;;;5117773;28;20012;-83
2022/12/23 03:56:39;;;;;;;20.10;14.00;;;2.40;99.90;;;;;;5097876;28;20368;-84
2022/12/23 03:59:27;;;;;;;24.30;16.17;;;2.40;99.90;;;;;;5105489;28;20022;-83
2022/12/23 04:02:31;;;;;;;22.60;15.57;;;2.40;99.90;;;;;;5092676;28;20015;-83
2022/12/23 04:05:19;;;;;;;23.48;16.20;;;2.40;99.90;;;;;;5117012;28;20090;-83
2022/12/23 04:08:14;;;;;;;24.30;16.63;;;2.40;99.90;;;;;;5120841;28;20043;-83
2022/12/23 04:10:40;;;;;;;27.25;17.20;;;2.40;99.90;;;;;;5100664;28;20012;-84
2022/12/23 04:13:07;;;;;;;26.10;16.25;;;2.50;99.90;;;;;;5105428;28;20024;-82
2022/12/23 04:15:37;;;;;;;25.45;16.67;;;2.40;99.90;;;;;;5117503;28;20024;-81
2022/12/23 04:18:03;;;;;;;28.30;17.05;;;2.40;99.90;;;;;;5115299;28;20051;-85
2022/12/23 04:20:29;;;;;;;23.90;16.17;;;2.40;99.90;;;;;;5105128;28;20035;-84
2022/12/23 04:23:12;;;;;;;26.92;16.90;;;2.40;99.90;;;;;;5122249;28;20024;-84
2022/12/23 04:25:38;;;;;;;26.85;16.52;;;2.40;99.90;;;;;;5074882;28;20538;-84
2022/12/23 04:28:04;;;;;;;27.98;18.92;;;2.40;99.90;;;;;;5090835;28;20028;-83
2022/12/23 04:30:30;;;;;;;29.48;19.63;;;2.40;99.90;;;;;;5058391;28;20021;-84
2022/12/23 04:32:56;;;;;;;30.85;19.42;;;2.40;99.90;;;;;;5074604;28;20017;-83
2022/12/23 04:35:22;;;;;;;34.15;19.77;;;2.50;99.90;;;;;;5076145;28;20021;-84
2022/12/23 04:37:47;;;;;;;29.70;18.15;;;2.50;99.90;;;;;;5075835;28;20025;-83
2022/12/23 04:40:13;;;;;;;35.15;18.92;;;2.40;99.90;;;;;;5076652;28;20025;-83
2022/12/23 04:42:39;;;;;;;31.05;16.70;;;2.40;99.90;;;;;;5075830;28;20108;-82
2022/12/23 04:45:05;;;;;;;34.22;19.38;;;2.40;99.90;;;;;;5066744;28;20017;-83
2022/12/23 04:47:31;;;;;;;32.28;18.50;;;2.40;99.90;;;;;;5081234;28;20550;-85
2022/12/23 04:49:58;;;;;;;30.40;17.25;;;2.50;99.90;;;;;;5053317;28;20012;-84
2022/12/23 04:52:24;;;;;;;35.63;19.20;;;2.40;99.90;;;;;;5076761;28;20031;-86
2022/12/23 04:54:50;;;;;;;28.23;18.48;;;2.40;99.90;;;;;;5057743;28;20012;-86
2022/12/23 04:57:16;;;;;;;28.95;18.55;;;2.40;99.90;;;;;;5069358;28;20119;-84
2022/12/23 04:59:42;;;;;;;31.05;19.50;;;2.40;99.90;;;;;;5080586;28;20063;-82
2022/12/23 05:02:11;;;;;;;31.70;19.85;;;2.40;99.90;;;;;;5060118;28;20040;-83
2022/12/23 05:04:37;;;;;;;34.67;20.65;;;2.50;99.90;;;;;;5077037;28;20025;-84
2022/12/23 05:07:03;;;;;;;32.88;17.35;;;2.50;99.90;;;;;;5075858;28;20036;-83
2022/12/23 05:09:28;;;;;;;27.90;16.15;;;2.50;99.90;;;;;;5057825;28;20434;-83
2022/12/23 05:11:54;;;;;;;28.63;17.25;;;2.40;99.90;;;;;;5078156;28;20099;-80
2022/12/23 05:14:20;;;;;;;30.15;18.80;;;2.40;99.90;;;;;;5079886;28;20028;-82
2022/12/23 05:16:46;;;;;;;30.65;17.38;;;2.40;99.90;;;;;;5075600;28;20028;-82
2022/12/23 05:19:12;;;;;;;28.85;16.42;;;2.50;99.90;;;;;;5074050;28;20175;-82
2022/12/23 05:21:38;;;;;;;31.05;16.35;;;2.50;99.90;;;;;;5079491;28;20115;-83
2022/12/23 05:24:04;;;;;;;24.30;15.95;;;2.50;99.90;;;;;;5091459;28;20215;-82
2022/12/23 05:26:29;;;;;;;30.35;14.93;;;2.50;99.90;;;;;;5093609;28;20036;-80
2022/12/23 05:28:55;;;;;;;22.38;13.10;;;2.50;99.90;;;;;;5098678;28;20020;-82
2022/12/23 05:31:21;;;;;;;21.80;16.20;;;2.50;99.90;;;;;;5108964;28;20024;-81
2022/12/23 05:33:47;;;;;;;23.77;16.17;;;2.40;99.90;;;;;;5114489;28;20076;-81
2022/12/23 05:36:13;;;;;;;22.15;14.70;;;2.40;99.90;;;;;;5117008;28;20107;-81
2022/12/23 05:38:39;;;;;;;26.35;15.75;;;2.30;99.90;;;;;;5120889;28;20353;-82
2022/12/23 05:41:05;;;;;;;24.67;15.20;;;2.20;99.90;;;;;;5113481;28;20545;-84
2022/12/23 05:43:31;;;;;;;29.80;15.82;;;2.20;99.90;;;;;;5115339;28;20362;-83
2022/12/23 05:45:57;;;;;;;23.73;15.65;;;2.20;99.90;;;;;;5115754;28;20038;-83
2022/12/23 05:48:22;;;;;;;22.63;14.60;;;2.20;99.90;;;;;;5113276;28;20036;-82
2022/12/23 05:50:52;;;;;;;21.83;13.52;;;2.20;99.90;;;;;;5107980;28;20020;-83
2022/12/23 05:53:19;;;;;;;21.45;11.85;;;2.20;99.90;;;;;;5114324;28;20031;-83
2022/12/23 05:55:45;;;;;;;22.92;14.73;;;2.20;99.90;;;;;;5115155;28;20461;-83
2022/12/23 05:58:23;;;;;;;21.33;14.18;;;2.10;99.90;;;;;;5113914;28;20034;-84
2022/12/23 06:00:49;;;;;;;26.92;13.05;;;2.10;99.90;;;;;;5115246;28;20048;-86
2022/12/23 06:03:17;;;;;;;21.05;11.90;;;2.00;99.90;;;;;;5109767;28;20024;-84
2022/12/23 06:05:43;;;;;;;22.23;15.00;;;2.00;99.90;;;;;;5088124;28;20023;-85
2022/12/23 06:08:09;;;;;;;21.42;15.57;;;2.00;99.90;;;;;;5114650;28;20031;-86
2022/12/23 06:10:35;;;;;;;18.83;11.82;;;2.00;99.90;;;;;;5108136;28;20210;-85
2022/12/23 06:13:01;;;;;;;19.38;12.90;;;2.00;99.90;;;;;;5083297;28;20036;-83
2022/12/23 06:15:27;;;;;;;25.48;15.02;;;2.00;99.90;;;;;;5092686;28;20481;-83
2022/12/23 06:17:54;;;;;;;25.42;14.65;;;2.00;99.90;;;;;;5107204;28;20110;-85
2022/12/23 06:20:20;;;;;;;28.70;13.32;;;2.00;99.90;;;;;;5082782;28;20049;-85
2022/12/23 06:22:46;;;;;;;21.90;13.57;;;2.10;99.90;;;;;;5116147;28;20024;-85
2022/12/23 06:25:12;;;;;;;21.98;13.50;;;2.10;99.90;;;;;;5124311;28;20103;-84
2022/12/23 06:27:38;;;;;;;24.20;15.15;;;2.10;99.90;;;;;;5100649;28;20078;-83
2022/12/23 06:30:04;;;;;;;21.40;15.40;;;2.20;99.90;;;;;;5113981;28;20020;-83
2022/12/23 06:32:30;;;;;;;26.15;16.02;;;2.30;99.90;;;;;;5102923;28;20047;-84
2022/12/23 06:34:56;;;;;;;24.15;16.58;;;2.30;99.90;;;;;;5083902;28;20377;-84
2022/12/23 06:37:22;;;;;;;24.70;14.27;;;2.30;99.90;;;;;;5062553;28;20028;-86
2022/12/23 06:39:48;;;;;;;25.05;14.13;;;2.40;99.90;;;;;;5084769;28;20032;-83
2022/12/23 06:42:14;;;;;;;19.30;12.48;;;2.40;99.90;;;;;;5095478;28;20486;-84
2022/12/23 06:44:40;;;;;;;23.00;14.00;;;2.40;99.90;;;;;;5093817;28;20035;-83
2022/12/23 06:47:05;;;;;;;22.23;14.57;;;2.40;99.90;;;;;;5066288;28;20063;-82
2022/12/23 06:49:31;;;;;;;25.65;14.85;;;2.40;99.90;;;;;;5101131;28;20225;-83
2022/12/23 06:51:57;;;;;;;29.13;16.00;;;2.40;99.90;;;;;;5084461;28;20024;-83
2022/12/23 06:54:23;;;;;;;27.00;15.65;;;2.40;99.90;;;;;;5089915;28;20025;-83
2022/12/23 06:56:49;;;;;;;24.45;16.10;;;2.50;99.90;;;;;;5079727;28;20024;-83
2022/12/23 06:59:15;;;;;;;21.67;13.82;;;2.50;99.90;;;;;;5095099;28;20522;-83
2022/12/23 07:01:40;;;;;;;19.67;13.07;;;2.40;99.90;;;;;;5108545;28;20522;-82
2022/12/23 07:04:06;;;;;;;29.55;16.42;;;2.50;99.90;;;;;;5100845;28;20057;-84
2022/12/23 07:06:32;;;;;;;21.27;13.13;;;2.50;99.90;;;;;;5108470;28;20043;-83
2022/12/23 07:08:58;;;;;;;19.02;12.73;;;2.50;99.90;;;;;;5104156;28;20436;-86
2022/12/23 07:11:24;;;;;;;27.13;14.82;;;2.50;99.90;;;;;;5091694;28;20007;-85
2022/12/23 07:13:50;;;;;;;20.10;11.48;;;2.50;99.90;;;;;;5114704;28;20023;-87
2022/12/23 07:16:16;;;;;;;19.88;12.82;;;2.40;99.90;;;;;;5090807;28;20074;-85
2022/12/23 07:18:42;;;;;;;27.42;13.27;;;2.40;99.90;;;;;;5101275;28;20035;-83
2022/12/23 07:21:08;;;;;;;24.27;15.88;;;2.30;99.90;;;;;;5091085;28;20496;-79
2022/12/23 07:23:34;;;;;;;24.63;14.32;;;2.30;99.90;;;;;;5102571;28;20079;-81
2022/12/23 07:26:00;;;;;;;19.52;12.63;;;2.20;99.90;;;;;;5099133;28;20051;-80
2022/12/23 07:28:26;;;;;;;22.35;13.48;;;2.30;99.90;;;;;;5105431;28;20362;-82
2022/12/23 07:30:52;;;;;;;23.20;15.05;;;2.30;99.90;;;;;;5086386;28;20469;-84
2022/12/23 07:33:18;;;;;;;25.20;15.60;;;2.30;99.90;;;;;;5091534;28;20043;-81
2022/12/23 07:35:43;;;;;;;23.40;12.18;;;2.30;99.90;;;;;;5097374;28;20020;-80
2022/12/23 07:38:09;;;;;;;20.73;13.50;;;2.40;99.90;;;;;;5085559;28;20474;-79
2022/12/23 07:40:35;;;;;;;23.33;14.32;;;2.40;99.90;;;;;;5101994;28;20055;-83
2022/12/23 07:43:02;;;;;;;26.30;14.43;;;2.40;99.90;;;;;;5088407;28;20118;-80
2022/12/23 07:45:28;;;;;;;24.13;13.50;;;2.40;99.90;;;;;;5095088;28;20050;-83
2022/12/23 07:47:56;;;;;;;27.45;15.10;;;2.40;99.90;;;;;;5100993;28;20392;-80
2022/12/23 07:50:22;;;;;;;21.67;13.60;;;2.50;99.90;;;;;;5100899;28;20473;-82
2022/12/23 07:52:48;;;;;;;24.10;15.02;;;2.40;99.90;;;;;;5097779;28;20032;-80
2022/12/23 07:55:15;;;;;;;22.55;13.90;;;2.30;99.90;;;;;;5085169;28;20090;-81
2022/12/23 07:57:40;;;;;;;23.38;13.27;;;2.30;99.90;;;;;;5101136;28;20138;-81
2022/12/23 08:00:11;;;;;;;25.27;14.80;;;2.30;99.90;;;;;;5100738;28;20050;-81
2022/12/23 08:02:37;;;;;;;24.83;14.25;;;2.30;99.90;;;;;;5101042;28;20035;-81
2022/12/23 08:05:03;;;;;;;26.08;15.73;;;2.40;99.90;;;;;;5091545;28;20023;-81
2022/12/23 08:07:29;;;;;;;24.30;15.38;;;2.40;99.90;;;;;;5097521;28;20073;-80
2022/12/23 08:09:55;;;;;;;21.05;14.43;;;2.50;99.90;;;;;;5103354;28;20020;-80
2022/12/23 08:12:20;;;;;;;26.27;18.30;;;2.50;99.90;;;;;;5103379;28;20035;-80
2022/12/23 08:14:47;;;;;;;27.00;15.90;;;2.50;99.90;;;;;;5088202;28;20104;-81
2022/12/23 08:17:13;;;;;;;23.77;16.20;;;2.60;99.90;;;;;;5068409;28;20043;-80
2022/12/23 08:19:39;;;;;;;22.55;13.65;;;2.60;99.90;;;;;;5088511;28;20103;-81
2022/12/23 08:22:05;;;;;;;24.52;15.48;;;2.70;99.90;;;;;;5095681;28;20455;-81
2022/12/23 08:24:31;;;;;;;26.25;14.20;;;2.60;99.90;;;;;;5076784;28;20433;-81
2022/12/23 08:26:57;;;;;;;22.73;14.27;;;2.70;99.90;;;;;;5078909;28;20433;-80
2022/12/23 08:29:23;;;;;;;26.67;15.35;;;2.60;99.90;;;;;;5085668;28;20118;-80
2022/12/23 08:31:49;;;;;;;24.77;14.32;;;2.70;99.90;;;;;;5118102;28;20031;-83
2022/12/23 08:34:18;;;;;;;23.98;14.35;;;2.70;99.90;;;;;;5117868;28;20020;-80
2022/12/23 08:36:44;;;;;;;27.17;15.50;;;2.70;99.90;;;;;;5097999;28;20020;-81
2022/12/23 08:39:11;;;;;;;22.70;14.70;;;2.80;99.90;;;;;;5110095;28;20016;-80
2022/12/23 08:41:43;;;;;;;25.83;16.20;;;2.80;99.90;;;;;;5076946;28;20024;-81
2022/12/23 08:44:09;;;;;;;18.58;11.95;;;2.90;99.90;;;;;;5095995;28;20028;-83
2022/12/23 08:46:36;;;;;;;25.77;15.18;;;2.90;99.90;;;;;;5087609;28;20036;-83
2022/12/23 08:49:02;;;;;;;28.30;15.55;;;2.90;99.90;;;;;;5083293;28;20074;-83
2022/12/23 08:51:28;;;;;;;22.23;14.40;;;2.90;99.90;;;;;;5102015;28;20027;-82
2022/12/23 08:53:56;;;;;;;23.15;15.25;;;2.80;99.90;;;;;;5101023;28;20024;-83
2022/12/23 08:56:24;;;;;;;23.88;13.20;;;2.80;99.90;;;;;;5071619;28;20342;-83
2022/12/23 08:58:52;;;;;;;24.33;14.00;;;2.80;99.90;;;;;;5085587;28;20150;-81
2022/12/23 09:01:21;;;;;;;23.92;15.35;;;2.70;99.90;;;;;;5092516;28;20024;-83
2022/12/23 09:03:47;;;;;;;23.38;14.85;;;2.60;99.90;;;;;;5094553;28;20022;-81
2022/12/23 09:06:22;;;;;;;22.75;13.90;;;2.60;99.90;;;;;;5075316;28;20115;-85
2022/12/23 09:08:49;;;;;;;24.35;12.90;;;2.70;99.90;;;;;;5068645;28;20052;-81
2022/12/23 09:11:18;;;;;;;27.13;16.13;;;2.70;99.90;;;;;;5084260;28;20029;-80
2022/12/23 09:13:45;;;;;;;21.80;13.45;;;2.60;99.90;;;;;;5074729;28;20262;-81
2022/12/23 09:16:11;;;;;;;16.63;10.40;;;2.60;99.90;;;;;;5058557;28;20079;-82
2022/12/23 09:18:37;;;;;;;22.83;14.70;;;2.50;99.90;;;;;;5086154;28;20468;-82
2022/12/23 09:21:05;;;;;;;25.58;15.95;;;2.50;99.90;;;;;;5093665;28;20086;-82
2022/12/23 09:23:31;;;;;;;24.80;15.55;;;2.50;99.90;;;;;;5074930;28;20039;-81
2022/12/23 09:25:57;;;;;;;26.15;16.85;;;2.40;99.90;;;;;;5075805;28;20080;-81
2022/12/23 09:28:24;;;;;;;23.40;15.00;;;2.40;99.90;;;;;;5078139;28;20040;-83
2022/12/23 09:30:50;;;;;;;21.37;12.23;;;2.40;99.90;;;;;;5095835;28;20046;-81
2022/12/23 09:33:17;;;;;;;22.33;14.57;;;2.40;99.90;;;;;;5096146;28;20495;-81
2022/12/23 09:35:43;;;;;;;26.30;13.57;;;2.40;99.90;;;;;;5096850;28;20024;-83
2022/12/23 09:38:09;;;;;;;23.65;16.65;;;2.40;99.90;;;;;;5114608;28;20384;-83
2022/12/23 09:40:37;;;;;;;15.10;10.40;;;2.40;99.90;;;;;;5095735;28;20472;-82
2022/12/23 09:43:27;;;;;;;27.92;14.57;;;2.40;99.90;;;;;;5114694;28;20476;-81
2022/12/23 09:45:53;;;;;;;23.52;13.23;;;2.40;99.90;;;;;;5100031;28;20377;-83
2022/12/23 09:48:24;;;;;;;24.17;14.10;;;2.40;99.90;;;;;;5113830;28;20034;-82
2022/12/23 09:50:50;;;;;;;24.05;12.65;;;2.40;99.90;;;;;;5099372;28;20023;-80
2022/12/23 09:53:24;;;;;;;28.80;16.90;;;2.50;99.90;;;;;;5113683;28;20023;-81
2022/12/23 09:56:08;;;;;;;24.75;16.20;;;2.50;99.90;;;;;;5095297;28;20082;-81
2022/12/23 09:58:53;;;;;;;24.27;13.93;;;2.50;99.90;;;;;;5095365;28;20019;-80
2022/12/23 10:01:56;;;;;;;21.13;12.60;;;2.70;99.90;;;;;;5112394;28;20027;-80
2022/12/23 10:04:49;;;;;;;27.88;15.23;;;2.70;99.90;;;;;;5051506;28;20047;-82
2022/12/23 10:07:34;;;;;;;21.67;14.35;;;2.70;99.90;;;;;;5073069;28;20029;-80
2022/12/23 10:10:12;;;;;;;18.60;11.38;;;2.70;99.90;;;;;;5097290;28;20060;-83
2022/12/23 10:12:45;;;;;;;25.23;13.02;;;2.70;99.90;;;;;;5111148;28;20020;-83
2022/12/23 10:15:41;;;;;;;22.90;13.98;;;2.60;99.90;;;;;;5097632;28;20030;-80
2022/12/23 10:18:53;;;;;;;22.47;14.20;;;2.60;99.90;;;;;;5102057;28;20091;-80
2022/12/23 10:21:43;;;;;;;23.40;15.13;;;2.60;99.90;;;;;;5046583;28;20438;-81
2022/12/23 10:24:21;;;;;;;29.85;16.83;;;2.60;99.90;;;;;;5097478;28;20119;-84
2022/12/23 10:26:59;;;;;;;;;;;2.70;99.90;;;;;;5077042;28;20034;-84
2022/12/23 10:29:30;;;;;;;28.35;17.10;;;2.80;99.90;;;;;;5075275;28;19920;-84
2022/12/23 10:32:20;;;;;;;27.35;17.15;;;2.80;99.90;;;;;;5111132;28;20385;-83
2022/12/23 10:35:25;;;;;;;23.60;17.17;;;2.80;99.90;;;;;;5098561;28;20056;-82
2022/12/23 10:38:02;;;;;;;18.48;11.63;;;2.90;99.90;;;;;;5113623;28;20104;-84
2022/12/23 10:40:36;;;;;;;24.05;14.63;;;2.80;99.90;;;;;;5114582;28;20027;-85
2022/12/23 10:43:24;;;;;;;21.00;13.95;;;2.80;99.90;;;;;;5086476;28;20135;-82
2022/12/23 10:46:10;;;;;;;;;;;2.80;99.90;;;;;;5114420;28;20023;-80
2022/12/23 10:49:00;;;;;;;21.38;14.20;;;2.80;99.90;;;;;;5111757;28;19919;-80
2022/12/23 10:51:29;;;;;;;27.23;17.17;;;2.80;99.90;;;;;;5112689;28;20145;-81
2022/12/23 10:54:16;;;;;;;23.25;14.82;;;2.80;99.90;;;;;;5112706;28;20349;-80
2022/12/23 10:56:43;;;;;;;23.20;15.60;;;2.90;99.90;;;;;;5085665;28;20031;-80
2022/12/23 10:59:14;;;;;;;20.80;13.23;;;3.00;99.90;;;;;;5113620;28;20073;-81
2022/12/23 11:01:46;;;;;;;21.63;14.18;;;3.00;99.90;;;;;;5112532;28;20020;-82
2022/12/23 11:04:16;;;;;;;19.73;13.48;;;2.90;99.90;;;;;;5094283;28;20487;-80
2022/12/23 11:06:49;;;;;;;23.83;13.98;;;2.90;99.90;;;;;;5093970;28;20598;-81
2022/12/23 11:09:32;;;;;;;17.38;11.43;;;2.90;99.90;;;;;;5101318;28;20025;-81
2022/12/23 11:12:01;;;;;;;14.40;9.48;;;2.90;99.90;;;;;;5093513;28;20027;-83
2022/12/23 11:14:34;;;;;;;17.58;11.05;;;2.80;99.90;;;;;;5092471;28;20389;-81
2022/12/23 11:17:00;;;;;;;23.38;12.70;;;2.70;99.90;;;;;;5093946;28;20020;-82
2022/12/23 11:19:26;;;;;;;19.17;12.05;;;2.60;99.90;;;;;;5097982;28;20388;-82
2022/12/23 11:21:54;;;;;;;20.85;15.45;;;2.60;99.90;;;;;;5086307;28;20046;-80
2022/12/23 11:24:22;;;;;;;17.08;13.43;;;2.60;99.90;;;;;;5084953;28;20130;-82
2022/12/23 11:27:03;;;;;;;21.73;13.00;;;2.60;99.90;;;;;;5088080;28;20078;-80
2022/12/23 11:29:43;;;;;;;23.35;15.45;;;2.60;99.90;;;;;;5117241;28;20095;-83
2022/12/23 11:32:22;;;;;;;16.13;10.35;;;2.50;99.90;;;;;;5115846;28;20023;-86
2022/12/23 11:34:49;;;;;;;21.73;14.15;;;2.60;99.90;;;;;;5077896;28;20051;-82
2022/12/23 11:37:42;;;;;;;20.50;15.50;;;2.60;99.90;;;;;;5091969;28;20024;-82
2022/12/23 11:40:29;;;;;;;17.73;11.85;;;2.60;99.90;;;;;;5076519;28;20400;-83
2022/12/23 11:43:01;;;;;;;17.70;13.30;;;2.60;99.90;;;;;;5098597;28;20070;-83
2022/12/23 11:45:31;;;;;;;21.38;15.25;;;2.60;99.90;;;;;;5071912;28;20055;-84
2022/12/23 11:47:56;;;;;;;20.27;13.82;;;2.70;99.90;;;;;;5091495;28;20055;-84
2022/12/23 11:50:28;;;;;;;18.88;13.45;;;2.70;99.90;;;;;;5094668;28;20016;-83
2022/12/23 11:53:14;;;;;;;22.65;12.40;;;2.70;99.90;;;;;;5075328;28;20024;-81
2022/12/23 11:56:03;;;;;;;25.75;14.38;;;2.70;99.90;;;;;;5080524;28;20016;-84
2022/12/23 11:58:33;;;;;;;18.05;12.00;;;2.60;99.90;;;;;;5100010;28;20041;-84
2022/12/23 12:01:20;;;;;;;19.00;12.95;;;2.60;99.90;;;;;;5093562;28;20012;-84
2022/12/23 12:03:54;;;;;;;20.10;13.27;;;2.60;99.90;;;;;;5075382;28;20390;-84
2022/12/23 12:06:22;;;;;;;18.70;12.80;;;2.60;99.90;;;;;;5088776;28;20511;-86
2022/12/23 12:09:00;;;;;;;19.00;13.35;;;2.60;99.90;;;;;;5099634;28;20082;-86
2022/12/23 12:11:33;;;;;;;23.90;17.88;;;2.60;99.90;;;;;;5079611;28;20114;-83
2022/12/23 12:14:05;;;;;;;19.02;13.07;;;2.60;99.90;;;;;;5111901;28;20464;-83
2022/12/23 12:16:39;;;;;;;18.77;12.30;;;2.60;99.90;;;;;;5098284;28;20016;-81
2022/12/23 12:19:41;;;;;;;20.85;13.18;;;2.60;99.90;;;;;;5109828;28;20028;-82
2022/12/23 12:22:15;;;;;;;14.40;10.32;;;2.50;99.90;;;;;;5069443;28;20118;-86
2022/12/23 12:24:51;;;;;;;15.90;10.07;;;2.50;99.90;;;;;;5075437;28;20508;-82
2022/12/23 12:27:19;;;;;;;20.10;13.75;;;2.50;99.90;;;;;;5067569;28;20025;-82
2022/12/23 12:30:01;;;;;;;19.17;13.18;;;2.40;99.90;;;;;;5068260;28;20351;-83
2022/12/23 12:32:45;;;;;;;12.95;8.35;;;2.50;99.90;;;;;;5099902;28;20023;-82
2022/12/23 12:35:36;;;;;;;20.80;13.38;;;2.40;99.90;;;;;;5095260;28;20076;-84
2022/12/23 12:38:23;;;;;;;20.42;13.50;;;2.40;99.90;;;;;;5077056;28;20436;-84
2022/12/23 12:40:51;;;;;;;;;;;2.50;99.90;;;;;;5075297;28;20066;-84
2022/12/23 12:43:33;;;;;;;20.65;15.05;;;2.50;99.90;;;;;;5057289;28;19905;-84
2022/12/23 12:46:38;;;;;;;20.10;13.98;;;2.50;99.90;;;;;;5077382;28;20051;-82
2022/12/23 12:49:21;;;;;;;18.80;13.38;;;2.60;99.90;;;;;;5070313;28;20025;-83
2022/12/23 12:52:01;;;;;;;20.52;13.32;;;2.50;99.90;;;;;;5064435;28;20023;-81
2022/12/23 12:55:05;;;;;;;19.77;13.00;;;2.50;99.90;;;;;;5073931;28;20032;-83
2022/12/23 12:57:34;;;;;;;14.68;11.90;;;2.50;99.90;;;;;;5047071;28;20040;-78
2022/12/23 13:00:01;;;;;;;18.92;10.13;;;2.40;99.90;;;;;;5069244;28;20151;-81
2022/12/23 13:02:42;;;;;;;21.23;15.15;;;2.50;99.90;;;;;;5055803;28;20030;-80
2022/12/23 13:05:27;;;;;;;18.15;12.15;;;2.40;99.90;;;;;;5059736;28;20024;-81
2022/12/23 13:08:23;;;;;;;17.80;10.63;;;2.40;99.90;;;;;;5073729;28;20123;-81
2022/12/23 13:10:49;;;;;;;16.38;11.13;;;2.40;99.90;;;;;;5073900;28;20091;-80
2022/12/23 13:13:36;;;;;;;19.20;14.82;;;2.30;99.90;;;;;;5073452;28;20020;-79
2022/12/23 13:16:22;;;;;;;17.58;12.88;;;2.30;99.90;;;;;;5073600;28;20359;-81
2022/12/23 13:19:07;;;;;;;18.50;12.35;;;2.40;99.90;;;;;;4999395;28;20449;-82
2022/12/23 13:21:45;;;;;;;15.35;11.32;;;2.40;99.90;;;;;;5052347;28;20058;-81
2022/12/23 13:24:27;;;;;;;19.05;13.73;;;2.30;99.90;;;;;;5057583;28;20124;-81
2022/12/23 13:27:11;;;;;;;18.58;13.63;;;2.30;99.90;;;;;;5060437;28;20040;-80
2022/12/23 13:29:37;;;;;;;13.75;10.60;;;2.30;99.90;;;;;;5060230;28;20083;-81
2022/12/23 13:32:42;;;;;;;18.00;13.00;;;2.30;99.90;;;;;;5045823;28;20033;-82